sensor_id;sensor_type;location;lat;lon;timestamp;pressure;altitude;pressure_sealevel;temperature;humidity
60646;BME280;46462;32.608;-117.032;2023-11-21T00:00:48;99768.90;;;23.51;20.17
60646;BME280;46462;32.608;-117.032;2023-11-21T00:03:18;99762.75;;;23.74;19.89
60646;BME280;46462;32.608;-117.032;2023-11-21T00:05:49;99762.22;;;23.63;20.07
60646;BME280;46462;32.608;-117.032;2023-11-21T00:08:20;99766.59;;;23.51;20.18
60646;BME280;46462;32.608;-117.032;2023-11-21T00:10:50;99772.79;;;23.55;20.16
60646;BME280;46462;32.608;-117.032;2023-11-21T00:13:21;99772.01;;;23.46;20.25
60646;BME280;46462;32.608;-117.032;2023-11-21T00:15:52;99774.07;;;23.37;20.48
60646;BME280;46462;32.608;-117.032;2023-11-21T00:18:22;99773.99;;;23.52;20.12
60646;BME280;46462;32.608;-117.032;2023-11-21T00:20:53;99772.24;;;23.30;20.17
60646;BME280;46462;32.608;-117.032;2023-11-21T00:23:23;99769.45;;;23.28;20.15
60646;BME280;46462;32.608;-117.032;2023-11-21T00:25:54;99782.63;;;23.12;20.30
60646;BME280;46462;32.608;-117.032;2023-11-21T00:28:26;99791.05;;;23.23;20.41
60646;BME280;46462;32.608;-117.032;2023-11-21T00:30:55;99780.22;;;23.47;21.76
60646;BME280;46462;32.608;-117.032;2023-11-21T00:33:26;99788.22;;;24.87;20.62
60646;BME280;46462;32.608;-117.032;2023-11-21T00:35:57;99786.94;;;25.47;19.73
60646;BME280;46462;32.608;-117.032;2023-11-21T00:38:27;99791.09;;;25.81;20.25
60646;BME280;46462;32.608;-117.032;2023-11-21T00:40:58;99791.96;;;26.02;20.43
60646;BME280;46462;32.608;-117.032;2023-11-21T00:43:29;99796.07;;;26.16;20.59
60646;BME280;46462;32.608;-117.032;2023-11-21T00:45:59;99794.26;;;26.20;20.32
60646;BME280;46462;32.608;-117.032;2023-11-21T00:48:30;99797.77;;;26.23;20.25
60646;BME280;46462;32.608;-117.032;2023-11-21T00:51:00;99809.22;;;26.23;19.92
60646;BME280;46462;32.608;-117.032;2023-11-21T00:53:31;99812.29;;;26.22;19.37
60646;BME280;46462;32.608;-117.032;2023-11-21T00:56:02;99816.42;;;26.21;20.00
60646;BME280;46462;32.608;-117.032;2023-11-21T00:58:32;99815.64;;;26.21;19.89
60646;BME280;46462;32.608;-117.032;2023-11-21T01:01:03;99821.87;;;26.23;20.40
60646;BME280;46462;32.608;-117.032;2023-11-21T01:03:34;99829.43;;;26.26;20.51
60646;BME280;46462;32.608;-117.032;2023-11-21T01:06:05;99841.90;;;26.25;20.63
60646;BME280;46462;32.608;-117.032;2023-11-21T01:08:35;99849.20;;;26.27;20.93
60646;BME280;46462;32.608;-117.032;2023-11-21T01:11:06;99849.90;;;26.27;20.85
60646;BME280;46462;32.608;-117.032;2023-11-21T01:13:37;99848.38;;;26.25;20.77
60646;BME280;46462;32.608;-117.032;2023-11-21T01:16:08;99851.60;;;26.24;20.96
60646;BME280;46462;32.608;-117.032;2023-11-21T01:18:38;99854.14;;;26.23;21.09
60646;BME280;46462;32.608;-117.032;2023-11-21T01:21:09;99854.71;;;26.23;21.22
60646;BME280;46462;32.608;-117.032;2023-11-21T01:23:39;99857.83;;;26.24;21.48
60646;BME280;46462;32.608;-117.032;2023-11-21T01:26:11;99866.42;;;26.22;21.75
60646;BME280;46462;32.608;-117.032;2023-11-21T01:28:41;99865.37;;;26.22;21.87
60646;BME280;46462;32.608;-117.032;2023-11-21T01:31:11;99862.17;;;26.21;22.07
60646;BME280;46462;32.608;-117.032;2023-11-21T01:33:42;99875.22;;;26.19;22.23
60646;BME280;46462;32.608;-117.032;2023-11-21T01:36:13;99878.25;;;26.19;22.32
60646;BME280;46462;32.608;-117.032;2023-11-21T01:38:43;99883.19;;;26.18;22.41
60646;BME280;46462;32.608;-117.032;2023-11-21T01:41:14;99895.81;;;26.17;22.43
60646;BME280;46462;32.608;-117.032;2023-11-21T01:43:45;99896.88;;;26.16;22.71
60646;BME280;46462;32.608;-117.032;2023-11-21T01:46:15;99901.34;;;26.13;22.69
60646;BME280;46462;32.608;-117.032;2023-11-21T01:48:46;99905.59;;;26.08;22.95
60646;BME280;46462;32.608;-117.032;2023-11-21T01:51:17;99906.46;;;26.06;23.00
60646;BME280;46462;32.608;-117.032;2023-11-21T01:53:47;99905.80;;;26.03;23.18
60646;BME280;46462;32.608;-117.032;2023-11-21T01:56:18;99905.15;;;26.03;23.35
60646;BME280;46462;32.608;-117.032;2023-11-21T01:58:49;99903.59;;;26.00;23.45
60646;BME280;46462;32.608;-117.032;2023-11-21T02:01:19;99906.15;;;25.99;23.55
60646;BME280;46462;32.608;-117.032;2023-11-21T02:03:50;99908.90;;;25.98;23.67
60646;BME280;46462;32.608;-117.032;2023-11-21T02:06:21;99918.69;;;25.96;23.81
60646;BME280;46462;32.608;-117.032;2023-11-21T02:08:52;99927.12;;;25.95;23.96
60646;BME280;46462;32.608;-117.032;2023-11-21T02:11:22;99930.36;;;25.94;24.18
60646;BME280;46462;32.608;-117.032;2023-11-21T02:13:53;99932.78;;;25.92;24.39
60646;BME280;46462;32.608;-117.032;2023-11-21T02:16:24;99935.47;;;25.91;24.48
60646;BME280;46462;32.608;-117.032;2023-11-21T02:18:55;99931.58;;;25.90;24.57
60646;BME280;46462;32.608;-117.032;2023-11-21T02:21:26;99933.69;;;25.89;24.62
60646;BME280;46462;32.608;-117.032;2023-11-21T02:23:56;99938.29;;;25.87;24.80
60646;BME280;46462;32.608;-117.032;2023-11-21T02:26:26;99940.87;;;25.85;24.94
60646;BME280;46462;32.608;-117.032;2023-11-21T02:28:57;99939.48;;;25.83;24.99
60646;BME280;46462;32.608;-117.032;2023-11-21T02:31:28;99947.32;;;25.86;25.11
60646;BME280;46462;32.608;-117.032;2023-11-21T02:33:59;99947.28;;;25.91;25.20
60646;BME280;46462;32.608;-117.032;2023-11-21T02:36:30;99941.21;;;25.91;25.40
60646;BME280;46462;32.608;-117.032;2023-11-21T02:39:00;99933.37;;;25.89;25.49
60646;BME280;46462;32.608;-117.032;2023-11-21T02:41:31;99940.71;;;25.87;25.72
60646;BME280;46462;32.608;-117.032;2023-11-21T02:44:02;99945.70;;;25.85;25.91
60646;BME280;46462;32.608;-117.032;2023-11-21T02:46:32;99949.51;;;25.84;25.99
60646;BME280;46462;32.608;-117.032;2023-11-21T02:49:03;99945.47;;;25.82;26.24
60646;BME280;46462;32.608;-117.032;2023-11-21T02:51:34;99949.88;;;25.81;26.33
60646;BME280;46462;32.608;-117.032;2023-11-21T02:54:05;99944.06;;;25.79;26.36
60646;BME280;46462;32.608;-117.032;2023-11-21T02:56:35;99948.51;;;25.78;26.53
60646;BME280;46462;32.608;-117.032;2023-11-21T02:59:06;99953.75;;;25.77;26.58
60646;BME280;46462;32.608;-117.032;2023-11-21T03:01:36;99958.93;;;25.76;26.74
60646;BME280;46462;32.608;-117.032;2023-11-21T03:04:07;99963.66;;;25.74;26.83
60646;BME280;46462;32.608;-117.032;2023-11-21T03:06:37;99963.82;;;25.73;27.02
60646;BME280;46462;32.608;-117.032;2023-11-21T03:09:08;99963.72;;;25.71;27.13
60646;BME280;46462;32.608;-117.032;2023-11-21T03:11:39;99964.32;;;25.70;27.20
60646;BME280;46462;32.608;-117.032;2023-11-21T03:14:10;99959.08;;;25.67;27.36
60646;BME280;46462;32.608;-117.032;2023-11-21T03:16:40;99962.50;;;25.66;27.63
60646;BME280;46462;32.608;-117.032;2023-11-21T03:19:11;99956.89;;;25.65;27.66
60646;BME280;46462;32.608;-117.032;2023-11-21T03:21:42;99958.43;;;25.64;27.82
60646;BME280;46462;32.608;-117.032;2023-11-21T03:24:12;99960.55;;;25.62;27.91
60646;BME280;46462;32.608;-117.032;2023-11-21T03:26:45;99969.67;;;25.62;27.96
60646;BME280;46462;32.608;-117.032;2023-11-21T03:29:14;99965.72;;;25.60;28.10
60646;BME280;46462;32.608;-117.032;2023-11-21T03:31:44;99965.95;;;25.59;28.22
60646;BME280;46462;32.608;-117.032;2023-11-21T03:34:23;99964.64;;;25.57;28.46
60646;BME280;46462;32.608;-117.032;2023-11-21T03:36:46;99969.52;;;25.57;28.50
60646;BME280;46462;32.608;-117.032;2023-11-21T03:39:16;99976.24;;;25.55;28.68
60646;BME280;46462;32.608;-117.032;2023-11-21T03:41:47;99979.63;;;25.54;28.72
60646;BME280;46462;32.608;-117.032;2023-11-21T03:44:18;99982.97;;;25.51;28.78
60646;BME280;46462;32.608;-117.032;2023-11-21T03:46:49;99991.19;;;25.46;28.94
60646;BME280;46462;32.608;-117.032;2023-11-21T03:49:19;99990.19;;;25.42;29.03
60646;BME280;46462;32.608;-117.032;2023-11-21T03:51:50;99982.14;;;25.40;29.09
60646;BME280;46462;32.608;-117.032;2023-11-21T03:54:21;99981.84;;;25.39;29.14
60646;BME280;46462;32.608;-117.032;2023-11-21T03:56:51;99991.60;;;25.36;29.29
60646;BME280;46462;32.608;-117.032;2023-11-21T03:59:22;99990.23;;;25.32;29.31
60646;BME280;46462;32.608;-117.032;2023-11-21T04:01:55;99998.57;;;25.31;29.55
60646;BME280;46462;32.608;-117.032;2023-11-21T04:04:23;99996.88;;;25.30;29.66
60646;BME280;46462;32.608;-117.032;2023-11-21T04:06:54;99999.79;;;25.26;29.78
60646;BME280;46462;32.608;-117.032;2023-11-21T04:09:25;99998.65;;;25.20;29.83
60646;BME280;46462;32.608;-117.032;2023-11-21T04:11:55;99989.16;;;25.18;29.86
60646;BME280;46462;32.608;-117.032;2023-11-21T04:14:26;99990.42;;;25.15;29.88
60646;BME280;46462;32.608;-117.032;2023-11-21T04:16:56;99988.22;;;25.16;29.91
60646;BME280;46462;32.608;-117.032;2023-11-21T04:19:27;99989.96;;;25.11;29.89
60646;BME280;46462;32.608;-117.032;2023-11-21T04:21:58;99990.42;;;25.08;29.95
60646;BME280;46462;32.608;-117.032;2023-11-21T04:24:28;99995.73;;;25.09;29.98
60646;BME280;46462;32.608;-117.032;2023-11-21T04:26:59;100001.62;;;25.10;30.03
60646;BME280;46462;32.608;-117.032;2023-11-21T04:29:30;100001.36;;;25.12;29.99
60646;BME280;46462;32.608;-117.032;2023-11-21T04:32:01;100005.09;;;25.11;30.00
60646;BME280;46462;32.608;-117.032;2023-11-21T04:34:31;100009.60;;;25.10;30.00
60646;BME280;46462;32.608;-117.032;2023-11-21T04:37:02;100007.49;;;25.06;30.03
60646;BME280;46462;32.608;-117.032;2023-11-21T04:39:32;100013.82;;;25.04;30.01
60646;BME280;46462;32.608;-117.032;2023-11-21T04:42:03;100016.37;;;25.07;29.94
60646;BME280;46462;32.608;-117.032;2023-11-21T04:44:34;100016.58;;;25.05;29.89
60646;BME280;46462;32.608;-117.032;2023-11-21T04:47:04;100016.34;;;25.04;29.83
60646;BME280;46462;32.608;-117.032;2023-11-21T04:49:35;100008.74;;;25.00;29.92
60646;BME280;46462;32.608;-117.032;2023-11-21T04:52:06;100004.74;;;25.06;29.85
60646;BME280;46462;32.608;-117.032;2023-11-21T04:54:36;100008.09;;;25.04;29.68
60646;BME280;46462;32.608;-117.032;2023-11-21T04:57:07;100007.22;;;25.03;29.77
60646;BME280;46462;32.608;-117.032;2023-11-21T04:59:38;100011.57;;;25.01;29.79
60646;BME280;46462;32.608;-117.032;2023-11-21T05:02:08;100012.17;;;25.03;29.77
60646;BME280;46462;32.608;-117.032;2023-11-21T05:04:39;100008.11;;;25.03;29.77
60646;BME280;46462;32.608;-117.032;2023-11-21T05:07:10;100010.05;;;25.00;29.78
60646;BME280;46462;32.608;-117.032;2023-11-21T05:09:42;100012.29;;;24.96;29.76
60646;BME280;46462;32.608;-117.032;2023-11-21T05:12:11;100009.58;;;24.98;29.82
60646;BME280;46462;32.608;-117.032;2023-11-21T05:14:42;100011.60;;;24.98;29.80
60646;BME280;46462;32.608;-117.032;2023-11-21T05:17:12;100012.41;;;24.98;29.73
60646;BME280;46462;32.608;-117.032;2023-11-21T05:19:43;100014.86;;;24.90;29.80
60646;BME280;46462;32.608;-117.032;2023-11-21T05:22:14;100012.13;;;24.90;29.84
60646;BME280;46462;32.608;-117.032;2023-11-21T05:24:44;100012.72;;;24.90;29.78
60646;BME280;46462;32.608;-117.032;2023-11-21T05:27:15;100015.25;;;24.88;29.87
60646;BME280;46462;32.608;-117.032;2023-11-21T05:29:46;100016.23;;;24.86;30.00
60646;BME280;46462;32.608;-117.032;2023-11-21T05:32:16;100015.39;;;24.88;29.96
60646;BME280;46462;32.608;-117.032;2023-11-21T05:34:47;100018.02;;;24.87;29.91
60646;BME280;46462;32.608;-117.032;2023-11-21T05:37:18;100017.92;;;24.80;29.96
60646;BME280;46462;32.608;-117.032;2023-11-21T05:39:48;100025.09;;;24.84;30.04
60646;BME280;46462;32.608;-117.032;2023-11-21T05:42:19;100027.22;;;24.83;29.92
60646;BME280;46462;32.608;-117.032;2023-11-21T05:44:50;100027.09;;;24.76;30.07
60646;BME280;46462;32.608;-117.032;2023-11-21T05:47:21;100024.16;;;24.72;30.15
60646;BME280;46462;32.608;-117.032;2023-11-21T05:49:51;100023.04;;;24.68;30.18
60646;BME280;46462;32.608;-117.032;2023-11-21T05:52:21;100025.61;;;24.68;30.26
60646;BME280;46462;32.608;-117.032;2023-11-21T05:54:52;100033.97;;;24.66;30.44
60646;BME280;46462;32.608;-117.032;2023-11-21T05:57:23;100033.63;;;24.66;30.56
60646;BME280;46462;32.608;-117.032;2023-11-21T05:59:53;100034.57;;;24.63;30.34
60646;BME280;46462;32.608;-117.032;2023-11-21T06:02:24;100038.95;;;24.57;30.47
60646;BME280;46462;32.608;-117.032;2023-11-21T06:04:55;100038.16;;;24.53;30.59
60646;BME280;46462;32.608;-117.032;2023-11-21T06:07:25;100033.85;;;24.49;30.31
60646;BME280;46462;32.608;-117.032;2023-11-21T06:09:56;100027.16;;;24.40;30.61
60646;BME280;46462;32.608;-117.032;2023-11-21T06:12:27;100025.13;;;24.38;30.54
60646;BME280;46462;32.608;-117.032;2023-11-21T06:14:57;100019.61;;;24.42;30.62
60646;BME280;46462;32.608;-117.032;2023-11-21T06:17:28;100015.56;;;24.45;31.03
60646;BME280;46462;32.608;-117.032;2023-11-21T06:19:59;100021.57;;;24.40;30.90
60646;BME280;46462;32.608;-117.032;2023-11-21T06:22:29;100021.08;;;24.38;30.95
60646;BME280;46462;32.608;-117.032;2023-11-21T06:25:00;100020.40;;;24.34;30.88
60646;BME280;46462;32.608;-117.032;2023-11-21T06:27:31;100017.74;;;24.37;30.97
60646;BME280;46462;32.608;-117.032;2023-11-21T06:30:01;100015.08;;;24.42;30.98
60646;BME280;46462;32.608;-117.032;2023-11-21T06:32:32;100016.56;;;24.47;30.85
60646;BME280;46462;32.608;-117.032;2023-11-21T06:35:08;100019.20;;;24.42;30.89
60646;BME280;46462;32.608;-117.032;2023-11-21T06:37:37;100017.25;;;24.40;30.67
60646;BME280;46462;32.608;-117.032;2023-11-21T06:40:08;100018.22;;;24.37;30.82
60646;BME280;46462;32.608;-117.032;2023-11-21T06:42:38;100017.91;;;24.43;30.92
60646;BME280;46462;32.608;-117.032;2023-11-21T06:45:09;100017.05;;;24.32;30.99
60646;BME280;46462;32.608;-117.032;2023-11-21T06:47:40;100016.71;;;24.33;30.87
60646;BME280;46462;32.608;-117.032;2023-11-21T06:50:11;100018.89;;;24.21;31.23
60646;BME280;46462;32.608;-117.032;2023-11-21T06:52:41;100020.62;;;24.25;31.12
60646;BME280;46462;32.608;-117.032;2023-11-21T06:55:12;100012.82;;;24.11;31.06
60646;BME280;46462;32.608;-117.032;2023-11-21T06:57:43;100018.65;;;24.08;31.08
60646;BME280;46462;32.608;-117.032;2023-11-21T07:00:16;100017.73;;;24.11;31.20
60646;BME280;46462;32.608;-117.032;2023-11-21T07:02:44;100014.64;;;24.13;30.70
60646;BME280;46462;32.608;-117.032;2023-11-21T07:05:15;100012.00;;;24.07;30.82
60646;BME280;46462;32.608;-117.032;2023-11-21T07:07:46;100014.11;;;24.05;31.09
60646;BME280;46462;32.608;-117.032;2023-11-21T07:10:16;100015.59;;;24.03;31.02
60646;BME280;46462;32.608;-117.032;2023-11-21T07:12:47;100017.07;;;24.00;31.10
60646;BME280;46462;32.608;-117.032;2023-11-21T07:15:18;100018.57;;;23.94;31.10
60646;BME280;46462;32.608;-117.032;2023-11-21T07:17:49;100014.46;;;23.97;31.11
60646;BME280;46462;32.608;-117.032;2023-11-21T07:20:19;100019.82;;;24.00;31.02
60646;BME280;46462;32.608;-117.032;2023-11-21T07:22:50;100020.62;;;24.04;31.34
60646;BME280;46462;32.608;-117.032;2023-11-21T07:25:21;100014.97;;;24.03;31.12
60646;BME280;46462;32.608;-117.032;2023-11-21T07:27:51;100017.78;;;23.97;31.23
60646;BME280;46462;32.608;-117.032;2023-11-21T07:30:22;100016.14;;;24.01;31.45
60646;BME280;46462;32.608;-117.032;2023-11-21T07:32:53;100008.58;;;24.02;31.30
60646;BME280;46462;32.608;-117.032;2023-11-21T07:35:24;100015.34;;;24.01;31.29
60646;BME280;46462;32.608;-117.032;2023-11-21T07:37:54;100018.67;;;23.97;31.15
60646;BME280;46462;32.608;-117.032;2023-11-21T07:40:25;100011.98;;;23.84;31.53
60646;BME280;46462;32.608;-117.032;2023-11-21T07:42:56;100015.61;;;23.81;31.61
60646;BME280;46462;32.608;-117.032;2023-11-21T07:45:27;100014.87;;;23.88;31.43
60646;BME280;46462;32.608;-117.032;2023-11-21T07:47:57;100003.24;;;23.88;31.51
60646;BME280;46462;32.608;-117.032;2023-11-21T07:50:28;100016.05;;;23.70;32.09
60646;BME280;46462;32.608;-117.032;2023-11-21T07:52:59;100016.88;;;23.69;31.80
60646;BME280;46462;32.608;-117.032;2023-11-21T07:55:30;100020.08;;;23.70;31.95
60646;BME280;46462;32.608;-117.032;2023-11-21T07:58:00;100018.55;;;23.80;31.65
60646;BME280;46462;32.608;-117.032;2023-11-21T08:00:31;100011.22;;;23.67;32.08
60646;BME280;46462;32.608;-117.032;2023-11-21T08:03:02;100011.14;;;23.52;31.82
60646;BME280;46462;32.608;-117.032;2023-11-21T08:05:33;100013.45;;;23.42;32.23
60646;BME280;46462;32.608;-117.032;2023-11-21T08:08:04;100017.45;;;23.44;32.21
60646;BME280;46462;32.608;-117.032;2023-11-21T08:10:34;100015.27;;;23.58;31.89
60646;BME280;46462;32.608;-117.032;2023-11-21T08:13:05;100012.51;;;23.64;31.87
60646;BME280;46462;32.608;-117.032;2023-11-21T08:15:36;100012.24;;;23.62;31.98
60646;BME280;46462;32.608;-117.032;2023-11-21T08:18:06;100005.69;;;23.48;31.80
60646;BME280;46462;32.608;-117.032;2023-11-21T08:20:37;100007.40;;;23.45;31.95
60646;BME280;46462;32.608;-117.032;2023-11-21T08:23:08;100006.07;;;23.48;32.18
60646;BME280;46462;32.608;-117.032;2023-11-21T08:25:39;99994.44;;;23.45;31.97
60646;BME280;46462;32.608;-117.032;2023-11-21T08:28:09;100007.94;;;23.47;32.03
60646;BME280;46462;32.608;-117.032;2023-11-21T08:30:41;100007.94;;;23.47;31.98
60646;BME280;46462;32.608;-117.032;2023-11-21T08:33:11;100005.90;;;23.45;32.39
60646;BME280;46462;32.608;-117.032;2023-11-21T08:35:42;100011.59;;;23.35;32.11
60646;BME280;46462;32.608;-117.032;2023-11-21T08:38:12;100007.70;;;23.43;31.93
60646;BME280;46462;32.608;-117.032;2023-11-21T08:40:43;100010.90;;;23.49;31.94
60646;BME280;46462;32.608;-117.032;2023-11-21T08:43:14;100006.45;;;23.45;31.91
60646;BME280;46462;32.608;-117.032;2023-11-21T08:45:45;100002.77;;;23.39;32.21
60646;BME280;46462;32.608;-117.032;2023-11-21T08:48:15;99993.00;;;23.42;31.89
60646;BME280;46462;32.608;-117.032;2023-11-21T08:50:46;99997.00;;;23.30;32.00
60646;BME280;46462;32.608;-117.032;2023-11-21T08:53:17;100003.59;;;23.31;31.95
60646;BME280;46462;32.608;-117.032;2023-11-21T08:55:48;100001.49;;;23.26;32.14
60646;BME280;46462;32.608;-117.032;2023-11-21T08:58:18;99998.07;;;23.32;32.22
60646;BME280;46462;32.608;-117.032;2023-11-21T09:00:49;99991.49;;;23.27;32.34
60646;BME280;46462;32.608;-117.032;2023-11-21T09:03:20;99993.03;;;23.16;32.30
60646;BME280;46462;32.608;-117.032;2023-11-21T09:05:51;99992.82;;;23.27;32.45
60646;BME280;46462;32.608;-117.032;2023-11-21T09:08:21;99994.69;;;23.27;32.29
60646;BME280;46462;32.608;-117.032;2023-11-21T09:10:52;99993.47;;;23.18;32.95
60646;BME280;46462;32.608;-117.032;2023-11-21T09:13:23;99992.67;;;23.27;32.28
60646;BME280;46462;32.608;-117.032;2023-11-21T09:15:53;99998.31;;;23.19;32.17
60646;BME280;46462;32.608;-117.032;2023-11-21T09:18:23;99999.64;;;23.31;32.11
60646;BME280;46462;32.608;-117.032;2023-11-21T09:20:54;100000.98;;;23.30;32.12
60646;BME280;46462;32.608;-117.032;2023-11-21T09:23:25;99996.58;;;23.31;32.06
60646;BME280;46462;32.608;-117.032;2023-11-21T09:25:55;100001.94;;;23.25;32.12
60646;BME280;46462;32.608;-117.032;2023-11-21T09:28:26;100002.98;;;23.18;32.62
60646;BME280;46462;32.608;-117.032;2023-11-21T09:30:57;100006.97;;;23.12;32.42
60646;BME280;46462;32.608;-117.032;2023-11-21T09:33:27;100007.33;;;23.18;32.22
60646;BME280;46462;32.608;-117.032;2023-11-21T09:35:58;100003.36;;;23.17;32.37
60646;BME280;46462;32.608;-117.032;2023-11-21T09:38:29;100007.38;;;23.05;32.69
60646;BME280;46462;32.608;-117.032;2023-11-21T09:41:01;100010.26;;;23.05;32.70
60646;BME280;46462;32.608;-117.032;2023-11-21T09:43:31;100012.43;;;23.04;32.56
60646;BME280;46462;32.608;-117.032;2023-11-21T09:46:02;100015.30;;;23.05;32.43
60646;BME280;46462;32.608;-117.032;2023-11-21T09:48:33;100012.43;;;23.17;32.77
60646;BME280;46462;32.608;-117.032;2023-11-21T09:51:03;100013.51;;;22.99;32.81
60646;BME280;46462;32.608;-117.032;2023-11-21T09:53:34;100020.45;;;22.98;32.77
60646;BME280;46462;32.608;-117.032;2023-11-21T09:56:05;100019.40;;;23.03;32.36
60646;BME280;46462;32.608;-117.032;2023-11-21T09:58:35;100024.90;;;22.95;32.54
60646;BME280;46462;32.608;-117.032;2023-11-21T10:01:06;100022.90;;;22.93;32.71
60646;BME280;46462;32.608;-117.032;2023-11-21T10:03:36;100024.35;;;22.82;33.11
60646;BME280;46462;32.608;-117.032;2023-11-21T10:06:08;100021.80;;;22.91;32.74
60646;BME280;46462;32.608;-117.032;2023-11-21T10:08:38;100023.39;;;22.88;32.93
60646;BME280;46462;32.608;-117.032;2023-11-21T10:11:11;100028.27;;;22.84;32.80
60646;BME280;46462;32.608;-117.032;2023-11-21T10:13:39;100027.06;;;22.76;33.19
60646;BME280;46462;32.608;-117.032;2023-11-21T10:16:10;100019.66;;;22.91;32.79
60646;BME280;46462;32.608;-117.032;2023-11-21T10:18:41;100026.93;;;22.90;32.77
60646;BME280;46462;32.608;-117.032;2023-11-21T10:21:12;100028.96;;;22.78;32.93
60646;BME280;46462;32.608;-117.032;2023-11-21T10:23:43;100031.42;;;22.75;33.04
60646;BME280;46462;32.608;-117.032;2023-11-21T10:26:13;100029.87;;;22.71;33.06
60646;BME280;46462;32.608;-117.032;2023-11-21T10:31:14;100029.89;;;22.82;32.85
60646;BME280;46462;32.608;-117.032;2023-11-21T10:33:45;100031.17;;;22.90;32.75
60646;BME280;46462;32.608;-117.032;2023-11-21T10:38:47;100038.92;;;22.78;33.36
60646;BME280;46462;32.608;-117.032;2023-11-21T10:41:18;100041.71;;;22.73;32.92
60646;BME280;46462;32.608;-117.032;2023-11-21T10:43:48;100049.28;;;22.77;32.90
60646;BME280;46462;32.608;-117.032;2023-11-21T10:46:19;100049.00;;;22.71;33.05
60646;BME280;46462;32.608;-117.032;2023-11-21T10:48:53;100047.19;;;22.74;33.02
60646;BME280;46462;32.608;-117.032;2023-11-21T10:51:21;100049.27;;;22.86;32.52
60646;BME280;46462;32.608;-117.032;2023-11-21T10:53:52;100055.48;;;22.84;32.68
60646;BME280;46462;32.608;-117.032;2023-11-21T10:56:24;100056.70;;;22.77;32.98
60646;BME280;46462;32.608;-117.032;2023-11-21T10:58:53;100060.56;;;22.77;32.89
60646;BME280;46462;32.608;-117.032;2023-11-21T11:01:25;100066.75;;;22.72;33.02
60646;BME280;46462;32.608;-117.032;2023-11-21T11:03:53;100059.66;;;22.73;32.89
60646;BME280;46462;32.608;-117.032;2023-11-21T11:06:24;100062.49;;;22.65;33.15
60646;BME280;46462;32.608;-117.032;2023-11-21T11:08:54;100059.59;;;22.69;33.31
60646;BME280;46462;32.608;-117.032;2023-11-21T11:11:26;100060.44;;;22.66;33.03
60646;BME280;46462;32.608;-117.032;2023-11-21T11:13:56;100064.22;;;22.75;32.88
60646;BME280;46462;32.608;-117.032;2023-11-21T11:16:28;100062.19;;;22.63;33.44
60646;BME280;46462;32.608;-117.032;2023-11-21T11:18:57;100065.61;;;22.46;33.98
60646;BME280;46462;32.608;-117.032;2023-11-21T11:21:36;100062.53;;;22.56;33.31
60646;BME280;46462;32.608;-117.032;2023-11-21T11:24:11;100064.52;;;22.58;33.63
60646;BME280;46462;32.608;-117.032;2023-11-21T11:26:37;100071.86;;;22.61;33.24
60646;BME280;46462;32.608;-117.032;2023-11-21T11:29:07;100077.81;;;22.60;33.19
60646;BME280;46462;32.608;-117.032;2023-11-21T11:31:37;100079.78;;;22.51;33.37
60646;BME280;46462;32.608;-117.032;2023-11-21T11:34:08;100081.58;;;22.52;33.25
60646;BME280;46462;32.608;-117.032;2023-11-21T11:36:38;100082.60;;;22.63;33.35
60646;BME280;46462;32.608;-117.032;2023-11-21T11:39:04;100085.05;;;22.58;33.22
60646;BME280;46462;32.608;-117.032;2023-11-21T11:41:35;100089.13;;;22.45;33.45
60646;BME280;46462;32.608;-117.032;2023-11-21T11:46:41;100100.81;;;22.54;33.11
60646;BME280;46462;32.608;-117.032;2023-11-21T11:49:06;100096.76;;;22.51;33.20
60646;BME280;46462;32.608;-117.032;2023-11-21T11:51:37;100100.99;;;22.52;33.40
60646;BME280;46462;32.608;-117.032;2023-11-21T11:54:07;100099.38;;;22.36;33.84
60646;BME280;46462;32.608;-117.032;2023-11-21T11:56:38;100099.83;;;22.39;33.53
60646;BME280;46462;32.608;-117.032;2023-11-21T11:59:09;100103.42;;;22.33;33.79
60646;BME280;46462;32.608;-117.032;2023-11-21T12:01:45;100105.13;;;22.36;33.53
60646;BME280;46462;32.608;-117.032;2023-11-21T12:06:42;100111.23;;;22.20;34.35
60646;BME280;46462;32.608;-117.032;2023-11-21T12:09:18;100107.87;;;22.24;33.87
60646;BME280;46462;32.608;-117.032;2023-11-21T12:11:42;100115.46;;;22.24;33.85
60646;BME280;46462;32.608;-117.032;2023-11-21T12:14:14;100122.80;;;22.40;33.83
60646;BME280;46462;32.608;-117.032;2023-11-21T12:16:44;100121.97;;;22.44;33.42
60646;BME280;46462;32.608;-117.032;2023-11-21T12:19:15;100126.39;;;22.25;33.94
60646;BME280;46462;32.608;-117.032;2023-11-21T12:21:46;100124.23;;;22.25;34.11
60646;BME280;46462;32.608;-117.032;2023-11-21T12:24:16;100126.72;;;22.17;33.95
60646;BME280;46462;32.608;-117.032;2023-11-21T12:26:47;100133.78;;;22.19;33.91
60646;BME280;46462;32.608;-117.032;2023-11-21T12:29:18;100135.95;;;22.14;33.97
60646;BME280;46462;32.608;-117.032;2023-11-21T12:31:50;100138.76;;;22.12;33.83
60646;BME280;46462;32.608;-117.032;2023-11-21T12:34:19;100140.64;;;22.10;34.25
60646;BME280;46462;32.608;-117.032;2023-11-21T12:36:51;100138.42;;;22.19;34.01
60646;BME280;46462;32.608;-117.032;2023-11-21T12:39:21;100141.00;;;22.27;33.56
60646;BME280;46462;32.608;-117.032;2023-11-21T12:41:51;100140.29;;;22.26;33.78
60646;BME280;46462;32.608;-117.032;2023-11-21T12:44:22;100136.00;;;22.32;33.52
60646;BME280;46462;32.608;-117.032;2023-11-21T12:46:53;100136.08;;;22.15;34.06
60646;BME280;46462;32.608;-117.032;2023-11-21T12:49:24;100139.26;;;22.08;34.34